Time;durP1;ratioP1;P1;durP2;ratioP2;P2;SDS_P1;SDS_P2;PMS_P1;PMS_P2;Temp;Humidity;BMP_temperature;BMP_pressure;BME280_temperature;BME280_humidity;BME280_pressure;Samples;Min_cycle;Max_cycle;Signal;HPM_P1;HPM_P2
2023/04/25 00:00:29;;;;;;;15.13;2.80;;;5.00;99.90;;;;;;5046067;28;20037;-74
2023/04/25 00:02:58;;;;;;;16.10;2.97;;;5.00;99.90;;;;;;5043727;28;20048;-74
2023/04/25 00:05:25;;;;;;;16.30;3.17;;;5.00;99.90;;;;;;5016720;28;20083;-74
2023/04/25 00:07:51;;;;;;;11.20;2.95;;;5.00;99.90;;;;;;5025442;28;20049;-74
2023/04/25 00:10:17;;;;;;;16.40;3.00;;;5.00;99.90;;;;;;5032808;28;20656;-74
2023/04/25 00:12:42;;;;;;;15.17;3.40;;;5.10;99.90;;;;;;5037415;28;20032;-74
2023/04/25 00:15:09;;;;;;;12.53;3.17;;;5.10;99.90;;;;;;5023954;28;20404;-74
2023/04/25 00:17:35;;;;;;;19.13;4.15;;;5.10;99.90;;;;;;5031377;28;20644;-74
2023/04/25 00:20:04;;;;;;;17.53;3.03;;;5.20;99.90;;;;;;5030831;28;20037;-74
2023/04/25 00:22:31;;;;;;;19.98;3.97;;;5.20;99.90;;;;;;5024561;28;20060;-74
2023/04/25 00:24:59;;;;;;;19.42;3.53;;;5.30;99.90;;;;;;5029670;28;20052;-74
2023/04/25 00:27:26;;;;;;;16.38;3.45;;;5.30;99.90;;;;;;5028562;28;20037;-74
2023/04/25 00:29:52;;;;;;;20.25;3.42;;;5.40;99.90;;;;;;5047575;28;20584;-74
2023/04/25 00:32:17;;;;;;;13.93;3.20;;;5.40;99.90;;;;;;5030308;28;20115;-74
2023/04/25 00:34:43;;;;;;;18.90;2.87;;;5.40;99.90;;;;;;5017625;28;20524;-74
2023/04/25 00:37:10;;;;;;;14.87;2.67;;;5.50;99.90;;;;;;5019874;28;20037;-74
2023/04/25 00:39:36;;;;;;;15.40;2.92;;;5.50;99.90;;;;;;5028432;28;20037;-74
2023/04/25 00:42:02;;;;;;;13.23;2.40;;;5.50;99.90;;;;;;5030686;28;20063;-74
2023/04/25 00:44:30;;;;;;;10.65;2.33;;;5.50;99.90;;;;;;5025693;28;20120;-74
2023/04/25 00:46:56;;;;;;;14.13;2.45;;;5.50;99.90;;;;;;5036395;28;20049;-74
2023/04/25 00:49:21;;;;;;;15.20;2.50;;;5.50;99.90;;;;;;5028812;28;20045;-74
2023/04/25 00:51:48;;;;;;;14.07;2.47;;;5.50;99.90;;;;;;5026122;28;20037;-76
2023/04/25 00:54:14;;;;;;;12.57;2.40;;;5.50;99.90;;;;;;5040139;28;20477;-74
2023/04/25 00:56:40;;;;;;;13.68;2.50;;;5.50;99.90;;;;;;5045106;28;20119;-74
2023/04/25 00:59:06;;;;;;;10.02;2.10;;;5.40;99.90;;;;;;5018280;28;20037;-74
2023/04/25 01:01:32;;;;;;;10.30;2.20;;;5.40;99.90;;;;;;5044173;28;20036;-74
2023/04/25 01:03:59;;;;;;;15.77;2.47;;;5.40;99.90;;;;;;5044611;28;20523;-74
2023/04/25 01:06:25;;;;;;;9.02;1.77;;;5.30;99.90;;;;;;5032146;28;20061;-75
2023/04/25 01:08:51;;;;;;;11.98;1.90;;;5.30;99.90;;;;;;5024685;28;20052;-74
2023/04/25 01:11:18;;;;;;;15.98;1.90;;;5.30;99.90;;;;;;5037176;28;20041;-74
2023/04/25 01:13:43;;;;;;;11.57;1.90;;;5.20;99.90;;;;;;5035266;28;20041;-74
2023/04/25 01:16:09;;;;;;;12.90;2.33;;;5.20;99.90;;;;;;5048721;28;20144;-74
2023/04/25 01:18:37;;;;;;;10.83;2.30;;;5.20;99.90;;;;;;5030269;28;20068;-74
2023/04/25 01:21:10;;;;;;;17.75;2.20;;;5.10;99.90;;;;;;5032649;28;20099;-74
2023/04/25 01:23:37;;;;;;;19.23;3.15;;;5.20;99.90;;;;;;5036550;28;20098;-74
2023/04/25 01:26:03;;;;;;;17.15;2.30;;;5.20;99.90;;;;;;5025892;28;20045;-74
2023/04/25 01:28:29;;;;;;;13.70;3.38;;;5.20;99.90;;;;;;5048100;28;20047;-74
2023/04/25 01:30:56;;;;;;;14.57;2.67;;;5.30;99.90;;;;;;5036342;28;20041;-74
2023/04/25 01:33:22;;;;;;;14.70;2.20;;;5.30;99.90;;;;;;5033469;28;20040;-74
2023/04/25 01:35:48;;;;;;;17.75;2.33;;;5.20;99.90;;;;;;5049258;28;20091;-74
2023/04/25 01:38:14;;;;;;;10.63;2.13;;;5.20;99.90;;;;;;5020903;28;20516;-74
2023/04/25 01:40:40;;;;;;;17.98;2.20;;;5.20;99.90;;;;;;5033091;28;20132;-74
2023/04/25 01:43:08;;;;;;;9.85;1.90;;;5.30;99.90;;;;;;5044317;28;20116;-74
2023/04/25 01:45:36;;;;;;;17.40;1.77;;;5.30;99.90;;;;;;5049284;28;20057;-74
2023/04/25 01:48:02;;;;;;;14.18;1.65;;;5.20;99.90;;;;;;5034151;28;20432;-74
2023/04/25 01:50:29;;;;;;;12.30;1.80;;;5.20;99.90;;;;;;5036473;28;20072;-74
2023/04/25 01:52:55;;;;;;;9.40;1.48;;;5.10;99.90;;;;;;5014222;28;20536;-74
2023/04/25 01:55:21;;;;;;;7.15;1.58;;;5.00;99.90;;;;;;5044840;28;20045;-74
2023/04/25 01:57:46;;;;;;;12.30;1.87;;;5.00;99.90;;;;;;5019112;28;20052;-74
2023/04/25 02:00:13;;;;;;;10.83;1.30;;;5.00;99.90;;;;;;5048145;28;20049;-74
2023/04/25 02:02:38;;;;;;;11.57;1.48;;;4.90;99.90;;;;;;5021631;28;20033;-74
2023/04/25 02:05:05;;;;;;;11.67;1.33;;;4.90;99.90;;;;;;5049006;28;20098;-74
2023/04/25 02:07:31;;;;;;;8.43;1.10;;;4.90;99.90;;;;;;5047992;28;20517;-74
2023/04/25 02:09:57;;;;;;;10.77;1.40;;;4.90;99.90;;;;;;5043399;28;20044;-74
2023/04/25 02:12:23;;;;;;;8.30;1.50;;;4.90;99.90;;;;;;5026543;28;20404;-74
2023/04/25 02:14:48;;;;;;;5.47;0.90;;;4.90;99.90;;;;;;5026749;28;20043;-74
2023/04/25 02:17:14;;;;;;;6.17;0.80;;;4.90;99.90;;;;;;5037640;28;20374;-74
2023/04/25 02:19:40;;;;;;;8.40;1.07;;;4.80;99.90;;;;;;5025637;28;20037;-74
2023/04/25 02:22:05;;;;;;;6.13;1.03;;;4.80;99.90;;;;;;5033043;28;20041;-74
2023/04/25 02:24:33;;;;;;;8.87;1.20;;;4.80;99.90;;;;;;5018588;28;20038;-74
2023/04/25 02:26:59;;;;;;;6.70;1.00;;;4.70;99.90;;;;;;5023274;28;20044;-74
2023/04/25 02:29:25;;;;;;;4.07;0.80;;;4.70;99.90;;;;;;5029022;28;20087;-74
2023/04/25 02:31:50;;;;;;;4.70;0.87;;;4.60;99.90;;;;;;5021109;28;20559;-74
2023/04/25 02:34:16;;;;;;;6.23;1.30;;;4.60;99.90;;;;;;5044689;28;20464;-74
2023/04/25 02:36:42;;;;;;;8.33;1.13;;;4.60;99.90;;;;;;5027575;28;20037;-74
2023/04/25 02:39:07;;;;;;;5.40;0.97;;;4.50;99.90;;;;;;5023601;28;20037;-74
2023/04/25 02:41:33;;;;;;;4.67;0.90;;;4.40;99.90;;;;;;5043971;28;20044;-74
2023/04/25 02:43:59;;;;;;;5.50;1.50;;;4.40;99.90;;;;;;5044340;28;20041;-74
2023/04/25 02:46:24;;;;;;;8.77;1.30;;;4.30;99.90;;;;;;5026016;28;20550;-74
2023/04/25 02:48:50;;;;;;;10.10;1.10;;;4.30;99.90;;;;;;5019902;28;20038;-74
2023/04/25 02:51:16;;;;;;;11.10;1.37;;;4.30;99.90;;;;;;5022794;28;20090;-74
2023/04/25 02:53:42;;;;;;;6.82;1.20;;;4.20;99.90;;;;;;5017488;28;20502;-74
2023/04/25 02:56:07;;;;;;;9.43;1.40;;;4.20;99.90;;;;;;5038600;28;20044;-74
2023/04/25 02:58:33;;;;;;;13.73;1.90;;;4.10;99.90;;;;;;5047130;28;20127;-74
2023/04/25 03:00:59;;;;;;;7.20;1.00;;;4.10;99.90;;;;;;5036147;28;20128;-74
2023/04/25 03:03:24;;;;;;;9.90;1.63;;;4.10;99.90;;;;;;5042918;28;20052;-74
2023/04/25 03:05:51;;;;;;;7.67;1.67;;;4.10;99.90;;;;;;5029696;28;20044;-74
2023/04/25 03:08:18;;;;;;;9.57;1.60;;;4.10;99.90;;;;;;5029666;28;20131;-74
2023/04/25 03:10:44;;;;;;;9.48;1.90;;;4.10;99.90;;;;;;5053697;28;20041;-74
2023/04/25 03:13:10;;;;;;;10.30;1.60;;;4.20;99.90;;;;;;5044826;28;20069;-74
2023/04/25 03:15:36;;;;;;;8.90;1.63;;;4.20;99.90;;;;;;5029830;28;20068;-74
2023/04/25 03:18:02;;;;;;;8.38;1.30;;;4.20;99.90;;;;;;5038437;28;20124;-74
2023/04/25 03:20:28;;;;;;;10.50;2.85;;;4.20;99.90;;;;;;5026892;28;20045;-74
2023/04/25 03:22:54;;;;;;;16.10;2.13;;;4.30;99.90;;;;;;5024058;28;20144;-74
2023/04/25 03:25:20;;;;;;;10.30;1.30;;;4.40;99.90;;;;;;5048543;28;20041;-74
2023/04/25 03:27:45;;;;;;;15.30;1.67;;;4.40;99.90;;;;;;5022165;28;20128;-74
2023/04/25 03:30:11;;;;;;;10.17;1.63;;;4.50;99.90;;;;;;5045346;28;20076;-74
2023/04/25 03:32:37;;;;;;;12.77;1.70;;;4.60;99.90;;;;;;5041543;28;20040;-74
2023/04/25 03:35:03;;;;;;;15.67;2.27;;;4.60;99.90;;;;;;5030471;28;20052;-74
2023/04/25 03:37:29;;;;;;;9.95;1.98;;;4.60;99.90;;;;;;5029802;28;20126;-74
2023/04/25 03:39:55;;;;;;;12.57;1.60;;;4.50;99.90;;;;;;5048754;28;20041;-74
2023/04/25 03:42:22;;;;;;;9.30;1.73;;;4.50;99.90;;;;;;5030925;28;20037;-74
2023/04/25 03:44:49;;;;;;;10.45;1.65;;;4.50;99.90;;;;;;5023881;28;20045;-74
2023/04/25 03:47:14;;;;;;;11.90;1.77;;;4.50;99.90;;;;;;5064852;28;20405;-74
2023/04/25 03:49:41;;;;;;;9.83;1.37;;;4.40;99.90;;;;;;5026575;28;20041;-74
2023/04/25 03:52:07;;;;;;;10.52;1.83;;;4.40;99.90;;;;;;5036440;28;20436;-74
2023/04/25 03:54:33;;;;;;;10.77;1.73;;;4.40;99.90;;;;;;5031948;28;20076;-74
2023/04/25 03:56:59;;;;;;;11.90;1.80;;;4.40;99.90;;;;;;5031266;28;20179;-74
2023/04/25 03:59:25;;;;;;;11.50;2.20;;;4.40;99.90;;;;;;5026049;28;20470;-74
2023/04/25 04:01:52;;;;;;;11.80;2.28;;;4.30;99.90;;;;;;5038389;28;20041;-74
2023/04/25 04:04:18;;;;;;;9.68;1.85;;;4.30;99.90;;;;;;5041863;28;20056;-74
2023/04/25 04:06:43;;;;;;;8.37;1.50;;;4.30;99.90;;;;;;5044693;28;20048;-74
2023/04/25 04:09:10;;;;;;;20.17;1.77;;;4.20;99.90;;;;;;5029170;28;20290;-74
2023/04/25 04:11:38;;;;;;;8.60;1.10;;;4.10;99.90;;;;;;5030480;28;20110;-74
2023/04/25 04:14:06;;;;;;;7.57;2.10;;;4.10;99.90;;;;;;5020451;28;20048;-74
2023/04/25 04:16:31;;;;;;;10.82;2.58;;;4.00;99.90;;;;;;5028509;28;20129;-74
2023/04/25 04:18:57;;;;;;;7.00;1.43;;;3.90;99.90;;;;;;5023670;28;20138;-74
2023/04/25 04:21:23;;;;;;;8.83;1.57;;;3.80;99.90;;;;;;5042644;28;20045;-74
2023/04/25 04:23:48;;;;;;;10.67;1.50;;;3.70;99.90;;;;;;5030470;28;20048;-74
2023/04/25 04:26:16;;;;;;;6.13;1.60;;;3.70;99.90;;;;;;5019305;28;20041;-74
2023/04/25 04:28:45;;;;;;;7.40;1.10;;;3.60;99.90;;;;;;5041033;28;20048;-74
2023/04/25 04:31:11;;;;;;;6.65;1.40;;;3.70;99.90;;;;;;5046240;28;20173;-74
2023/04/25 04:33:37;;;;;;;7.47;1.10;;;3.70;99.90;;;;;;5027486;28;20064;-74
2023/04/25 04:36:03;;;;;;;10.13;1.60;;;3.90;99.90;;;;;;5033500;28;20544;-74
2023/04/25 04:38:30;;;;;;;11.68;1.52;;;4.00;99.90;;;;;;5041068;28;20104;-74
2023/04/25 04:40:56;;;;;;;13.38;1.75;;;4.10;99.90;;;;;;5033072;28;20079;-74
2023/04/25 04:43:22;;;;;;;8.38;1.25;;;4.20;99.90;;;;;;5046365;28;20064;-74
2023/04/25 04:45:49;;;;;;;11.57;1.70;;;4.20;99.90;;;;;;5026560;28;20401;-74
2023/04/25 04:48:16;;;;;;;8.88;1.42;;;4.30;99.90;;;;;;5026877;28;20129;-74
2023/04/25 04:50:45;;;;;;;7.40;1.30;;;4.40;99.90;;;;;;5018609;28;20037;-74
2023/04/25 04:53:11;;;;;;;9.77;1.40;;;4.30;99.90;;;;;;5032631;28;20045;-74
2023/04/25 04:55:37;;;;;;;14.23;1.55;;;4.30;99.90;;;;;;5045549;28;20049;-74
2023/04/25 04:58:03;;;;;;;10.70;1.13;;;4.30;99.90;;;;;;5029419;28;20045;-74
2023/04/25 05:00:29;;;;;;;7.53;1.13;;;4.30;99.90;;;;;;5032048;28;20047;-74
2023/04/25 05:02:55;;;;;;;12.47;1.73;;;4.30;99.90;;;;;;5049634;28;20100;-74
2023/04/25 05:05:21;;;;;;;13.25;1.70;;;4.30;99.90;;;;;;5029009;28;20079;-74
2023/04/25 05:07:47;;;;;;;7.83;1.20;;;4.30;99.90;;;;;;5044570;28;20068;-74
2023/04/25 05:10:13;;;;;;;10.93;1.30;;;4.40;99.90;;;;;;5036526;28;20140;-74
2023/04/25 05:12:39;;;;;;;13.18;1.40;;;4.40;99.90;;;;;;5032435;28;20041;-74
2023/04/25 05:15:05;;;;;;;8.40;1.20;;;4.40;99.90;;;;;;5032720;28;20261;-74
2023/04/25 05:17:32;;;;;;;6.80;0.88;;;4.40;99.90;;;;;;5035857;28;20050;-74
2023/04/25 05:19:58;;;;;;;10.70;1.42;;;4.50;99.90;;;;;;5038774;28;20054;-74
2023/04/25 05:22:24;;;;;;;8.43;1.40;;;4.60;99.90;;;;;;5051082;28;20134;-74
2023/04/25 05:24:51;;;;;;;7.80;1.37;;;4.60;99.90;;;;;;5034431;28;20074;-74
2023/04/25 05:27:17;;;;;;;4.97;1.42;;;4.60;99.90;;;;;;5035282;28;20668;-74
2023/04/25 05:29:44;;;;;;;8.55;1.73;;;4.50;99.90;;;;;;5041360;28;20048;-74
2023/04/25 05:32:09;;;;;;;8.43;1.13;;;4.50;99.90;;;;;;5050486;28;20056;-74
2023/04/25 05:34:36;;;;;;;9.87;1.77;;;4.40;99.90;;;;;;5047690;28;20041;-74
2023/04/25 05:37:02;;;;;;;8.52;1.25;;;4.50;99.90;;;;;;5026981;28;20048;-74
2023/04/25 05:39:28;;;;;;;7.93;1.33;;;4.50;99.90;;;;;;5049884;28;20037;-74
2023/04/25 05:41:54;;;;;;;6.75;1.35;;;4.60;99.90;;;;;;5032749;28;20485;-74
2023/04/25 05:44:20;;;;;;;8.83;1.23;;;4.70;99.90;;;;;;5045129;28;20029;-74
2023/04/25 05:46:46;;;;;;;8.98;1.65;;;4.80;99.90;;;;;;5066208;28;20745;-74
2023/04/25 05:49:12;;;;;;;6.13;0.60;;;4.90;99.90;;;;;;5026469;28;20045;-74
2023/04/25 05:51:37;;;;;;;6.47;1.13;;;5.00;99.90;;;;;;5049149;28;20029;-74
2023/04/25 05:54:03;;;;;;;10.37;1.30;;;5.10;99.90;;;;;;5045346;28;20122;-74
2023/04/25 05:56:29;;;;;;;10.33;1.43;;;5.10;99.90;;;;;;5041567;28;20497;-74
2023/04/25 05:58:55;;;;;;;8.88;0.98;;;5.10;99.90;;;;;;5023516;28;20049;-74
2023/04/25 06:01:22;;;;;;;7.80;1.00;;;5.20;99.90;;;;;;5030029;28;20404;-74
2023/04/25 06:03:48;;;;;;;11.90;1.00;;;5.20;99.90;;;;;;5020101;28;20045;-74
2023/04/25 06:06:14;;;;;;;8.27;1.73;;;5.20;99.90;;;;;;5045280;28;20094;-74
2023/04/25 06:08:41;;;;;;;8.93;1.33;;;5.30;99.90;;;;;;5027606;28;20033;-74
2023/04/25 06:11:06;;;;;;;12.02;1.48;;;5.30;99.90;;;;;;5021681;28;20037;-74
2023/04/25 06:13:33;;;;;;;7.40;1.47;;;5.30;99.90;;;;;;5026118;28;20068;-74
2023/04/25 06:15:59;;;;;;;5.93;1.65;;;5.30;99.90;;;;;;5033187;28;20083;-74
2023/04/25 06:18:24;;;;;;;10.03;1.63;;;5.30;99.90;;;;;;5022838;28;20052;-74
2023/04/25 06:20:50;;;;;;;7.67;1.00;;;5.20;99.90;;;;;;5050443;28;20040;-74
2023/04/25 06:23:16;;;;;;;8.60;0.83;;;5.20;99.90;;;;;;5033510;28;20041;-74
2023/04/25 06:25:41;;;;;;;6.40;0.83;;;5.20;99.90;;;;;;5048067;28;20540;-74
2023/04/25 06:28:08;;;;;;;6.13;0.90;;;5.20;99.90;;;;;;5045434;28;20049;-74
2023/04/25 06:30:33;;;;;;;5.93;0.80;;;5.30;99.90;;;;;;5026837;28;20056;-74
2023/04/25 06:32:59;;;;;;;5.57;0.90;;;5.50;99.90;;;;;;5046557;28;20041;-74
2023/04/25 06:35:25;;;;;;;6.30;1.20;;;5.60;99.90;;;;;;5026654;28;20068;-76
2023/04/25 06:37:50;;;;;;;8.37;1.00;;;5.70;99.90;;;;;;5044656;28;20047;-76
2023/04/25 06:40:17;;;;;;;4.77;1.00;;;5.90;99.90;;;;;;5033676;28;20044;-75
2023/04/25 06:42:43;;;;;;;7.65;0.90;;;6.00;99.90;;;;;;5049774;28;20044;-76
2023/04/25 06:45:09;;;;;;;8.83;0.87;;;6.20;99.90;;;;;;5032102;28;20041;-75
2023/04/25 06:47:35;;;;;;;6.47;0.75;;;6.20;99.90;;;;;;5028137;28;20040;-76
2023/04/25 06:50:00;;;;;;;6.70;1.00;;;6.10;99.90;;;;;;5023571;28;20042;-76
2023/04/25 06:52:26;;;;;;;9.37;1.13;;;6.20;99.90;;;;;;5039873;28;20147;-77
2023/04/25 06:54:52;;;;;;;4.30;0.90;;;6.20;99.90;;;;;;5051875;28;20055;-76
2023/04/25 06:57:17;;;;;;;9.83;1.27;;;6.50;99.90;;;;;;5022768;28;20041;-75
2023/04/25 06:59:43;;;;;;;12.83;1.47;;;6.70;99.90;;;;;;5051513;28;20045;-75
2023/04/25 07:02:09;;;;;;;6.53;1.70;;;6.70;99.90;;;;;;5046426;28;20051;-75
2023/04/25 07:04:35;;;;;;;10.93;1.27;;;6.40;99.90;;;;;;5056607;28;20104;-75
2023/04/25 07:07:02;;;;;;;7.67;1.27;;;5.80;99.90;;;;;;5035018;28;20045;-75
2023/04/25 07:09:28;;;;;;;5.65;0.80;;;5.50;99.90;;;;;;5048048;28;20041;-76
2023/04/25 07:11:54;;;;;;;7.57;0.90;;;5.40;99.90;;;;;;5026641;28;20500;-76
2023/04/25 07:14:20;;;;;;;4.90;1.00;;;5.40;99.90;;;;;;5027853;28;20719;-76
2023/04/25 07:16:46;;;;;;;5.13;0.67;;;5.50;99.90;;;;;;5044946;28;20043;-75
2023/04/25 07:19:11;;;;;;;6.68;0.73;;;5.70;99.90;;;;;;5025367;28;20052;-75
2023/04/25 07:21:37;;;;;;;7.77;1.10;;;5.90;99.90;;;;;;5028926;28;20044;-75
2023/04/25 07:24:03;;;;;;;6.47;1.17;;;5.90;99.90;;;;;;5025353;28;20477;-75
2023/04/25 07:26:29;;;;;;;7.30;0.50;;;5.90;99.90;;;;;;5050714;28;20037;-75
2023/04/25 07:28:55;;;;;;;5.00;0.70;;;5.80;99.90;;;;;;5032654;28;20064;-75
2023/04/25 07:31:22;;;;;;;4.60;0.60;;;5.80;99.90;;;;;;5032326;28;20799;-75
2023/04/25 07:33:47;;;;;;;9.45;0.80;;;5.70;99.90;;;;;;5048185;28;20037;-75
2023/04/25 07:36:15;;;;;;;7.80;1.00;;;5.70;99.90;;;;;;5046786;28;20062;-75
2023/04/25 07:38:41;;;;;;;6.45;0.90;;;5.70;99.90;;;;;;5047915;28;20048;-75
2023/04/25 07:41:07;;;;;;;4.82;0.73;;;5.60;99.90;;;;;;5048998;28;20039;-76
2023/04/25 07:43:33;;;;;;;5.93;0.90;;;5.70;99.90;;;;;;5048176;28;20615;-75
2023/04/25 07:45:59;;;;;;;8.57;0.97;;;5.90;99.90;;;;;;5050117;28;20075;-76
2023/04/25 07:48:24;;;;;;;8.05;0.93;;;6.20;99.90;;;;;;5033168;28;20260;-76
2023/04/25 07:50:50;;;;;;;5.37;1.00;;;6.70;99.90;;;;;;5051034;28;20095;-75
2023/04/25 07:53:17;;;;;;;6.20;0.80;;;7.00;99.90;;;;;;5032562;28;20037;-75
2023/04/25 07:55:43;;;;;;;9.20;1.30;;;7.20;99.90;;;;;;5035980;28;20041;-75
2023/04/25 07:58:11;;;;;;;4.73;0.80;;;7.20;99.90;;;;;;5020484;28;20108;-75
2023/04/25 08:00:36;;;;;;;8.32;1.05;;;7.00;99.90;;;;;;5041615;28;20288;-75
2023/04/25 08:03:02;;;;;;;4.63;1.00;;;6.70;99.90;;;;;;5017668;28;20045;-74
2023/04/25 08:05:28;;;;;;;10.40;0.97;;;6.40;99.90;;;;;;5044721;28;20131;-75
2023/04/25 08:07:55;;;;;;;4.68;0.77;;;6.20;99.90;;;;;;5024787;28;20045;-75
2023/04/25 08:10:22;;;;;;;6.18;0.93;;;6.30;99.90;;;;;;5044514;28;20108;-75
2023/04/25 08:12:49;;;;;;;5.32;0.80;;;6.40;99.90;;;;;;5039555;28;20048;-75
2023/04/25 08:15:14;;;;;;;7.93;0.90;;;6.70;99.90;;;;;;5021559;28;20485;-75
2023/04/25 08:17:40;;;;;;;7.53;0.77;;;7.00;99.90;;;;;;5021230;28;20049;-75
2023/04/25 08:20:07;;;;;;;6.80;0.90;;;7.20;99.90;;;;;;5041054;28;20120;-75
2023/04/25 08:22:33;;;;;;;5.53;0.80;;;7.30;99.90;;;;;;5042546;28;20156;-75
2023/04/25 08:24:59;;;;;;;4.72;0.90;;;7.40;99.90;;;;;;5036528;28;20045;-75
2023/04/25 08:27:25;;;;;;;8.47;1.20;;;7.50;99.90;;;;;;5031273;28;20483;-75
2023/04/25 08:29:51;;;;;;;7.07;0.90;;;7.60;99.90;;;;;;5048536;28;20152;-75
2023/04/25 08:32:18;;;;;;;9.03;1.67;;;7.80;99.90;;;;;;5031780;28;20408;-75
2023/04/25 08:34:43;;;;;;;12.00;1.10;;;8.20;99.90;;;;;;5045791;28;20057;-75
2023/04/25 08:37:10;;;;;;;8.83;1.20;;;8.20;99.90;;;;;;5026243;28;20562;-75
2023/04/25 08:39:36;;;;;;;9.90;1.35;;;8.20;99.90;;;;;;5022820;28;20320;-75
2023/04/25 08:42:10;;;;;;;9.40;1.77;;;8.10;99.90;;;;;;5031009;28;20578;-75
2023/04/25 08:44:36;;;;;;;6.93;1.35;;;8.30;99.90;;;;;;5041602;28;20364;-75
2023/04/25 08:47:05;;;;;;;13.50;1.63;;;8.50;99.90;;;;;;5047032;28;20396;-75
2023/04/25 08:49:35;;;;;;;8.30;1.35;;;8.80;99.90;;;;;;5036048;28;20461;-75
2023/04/25 08:52:05;;;;;;;13.43;2.22;;;8.80;99.90;;;;;;5030391;28;20041;-75
2023/04/25 08:54:32;;;;;;;8.18;1.08;;;8.80;99.90;;;;;;5041922;28;20451;-75
2023/04/25 08:57:01;;;;;;;10.55;2.03;;;8.80;99.90;;;;;;5027240;28;20041;-75
2023/04/25 08:59:29;;;;;;;10.00;1.30;;;9.00;99.90;;;;;;5027979;28;20383;-75
2023/04/25 09:01:55;;;;;;;8.68;1.40;;;9.00;99.90;;;;;;5054374;28;20036;-75
2023/04/25 09:04:21;;;;;;;10.17;1.40;;;8.70;99.90;;;;;;5029091;28;20429;-75
2023/04/25 09:06:48;;;;;;;9.70;1.33;;;8.30;99.90;;;;;;5026967;28;20098;-75
2023/04/25 09:09:13;;;;;;;7.20;1.40;;;8.00;99.90;;;;;;5026257;28;20045;-75
2023/04/25 09:11:40;;;;;;;8.50;1.17;;;8.00;99.90;;;;;;5026230;28;20044;-75
2023/04/25 09:14:21;;;;;;;9.10;1.20;;;8.10;99.90;;;;;;5020049;28;20065;-76
2023/04/25 09:16:56;;;;;;;9.05;1.10;;;8.30;99.90;;;;;;5023361;28;20060;-75
2023/04/25 09:19:31;;;;;;;7.25;0.98;;;8.40;99.90;;;;;;5032596;28;20467;-75
2023/04/25 09:22:00;;;;;;;5.05;1.08;;;8.50;99.90;;;;;;5046940;28;20033;-75
2023/04/25 09:24:43;;;;;;;10.52;1.65;;;8.40;99.90;;;;;;5031514;28;20188;-75
2023/04/25 09:27:11;;;;;;;8.75;1.42;;;8.00;99.90;;;;;;5043437;28;20053;-75
2023/04/25 09:29:38;;;;;;;6.75;1.05;;;7.70;99.90;;;;;;5033518;28;20576;-75
2023/04/25 09:32:20;;;;;;;6.13;0.70;;;7.50;99.90;;;;;;5040134;28;20120;-75
2023/04/25 09:34:50;;;;;;;6.60;0.90;;;7.40;99.90;;;;;;5025431;28;20239;-75
2023/04/25 09:37:30;;;;;;;2.72;0.40;;;7.40;99.90;;;;;;5024059;28;20044;-75
2023/04/25 09:40:02;;;;;;;3.92;0.50;;;7.20;99.90;;;;;;5044975;28;20044;-75
2023/04/25 09:42:31;;;;;;;2.95;0.80;;;6.70;99.90;;;;;;5030034;28;20506;-75
2023/04/25 09:44:58;;;;;;;4.15;0.90;;;6.70;99.90;;;;;;5024400;28;20059;-75
2023/04/25 09:47:26;;;;;;;5.07;0.60;;;6.80;99.90;;;;;;5025412;28;20047;-76
2023/04/25 09:49:53;;;;;;;3.00;0.60;;;6.90;99.90;;;;;;5021807;28;20049;-75
2023/04/25 09:52:23;;;;;;;6.00;0.70;;;7.00;99.90;;;;;;5023676;28;20040;-75
2023/04/25 09:54:50;;;;;;;2.88;0.57;;;7.00;99.90;;;;;;5024541;28;20075;-75
2023/04/25 09:57:18;;;;;;;6.07;0.60;;;7.10;99.90;;;;;;5040065;28;20122;-75
2023/04/25 09:59:54;;;;;;;7.70;0.95;;;7.30;99.90;;;;;;5022053;28;20044;-75
2023/04/25 10:02:25;;;;;;;5.00;0.77;;;7.60;99.90;;;;;;5020620;28;20127;-75
2023/04/25 10:04:55;;;;;;;6.45;1.20;;;8.00;99.90;;;;;;5043321;28;20044;-75
2023/04/25 10:07:26;;;;;;;7.28;1.05;;;8.40;99.90;;;;;;5019024;28;20048;-75
2023/04/25 10:10:03;;;;;;;9.75;1.10;;;8.60;99.90;;;;;;5041694;28;20052;-75
2023/04/25 10:12:29;;;;;;;9.68;0.93;;;8.50;99.90;;;;;;5042733;28;20496;-75
2023/04/25 10:14:55;;;;;;;7.50;1.02;;;8.50;99.90;;;;;;5046003;28;20053;-75
2023/04/25 10:17:21;;;;;;;6.60;1.27;;;8.50;99.90;;;;;;5042751;28;20047;-75
2023/04/25 10:19:50;;;;;;;6.60;1.10;;;8.70;99.90;;;;;;5044220;28;20048;-75
2023/04/25 10:22:35;;;;;;;6.78;0.80;;;9.10;99.90;;;;;;5026731;28;20077;-75
2023/04/25 10:25:05;;;;;;;10.52;0.95;;;9.10;99.90;;;;;;5041073;28;20095;-75
2023/04/25 10:27:31;;;;;;;5.25;0.98;;;9.00;99.90;;;;;;5036765;28;20157;-75
2023/04/25 10:30:08;;;;;;;6.37;0.70;;;8.90;97.20;;;;;;5037732;28;20175;-75
2023/04/25 10:32:35;;;;;;;6.43;0.80;;;8.80;92.30;;;;;;5044709;28;20037;-75
2023/04/25 10:35:32;;;;;;;5.00;0.77;;;9.00;93.70;;;;;;5025632;28;20669;-75
2023/04/25 10:38:13;;;;;;;4.90;0.70;;;9.20;95.80;;;;;;5020229;28;20049;-75
2023/04/25 10:40:39;;;;;;;8.00;0.93;;;9.30;96.00;;;;;;5040988;28;20037;-75
2023/04/25 10:43:42;;;;;;;9.73;1.30;;;9.40;94.90;;;;;;5021157;28;20080;-75
2023/04/25 10:46:25;;;;;;;6.45;1.35;;;9.50;89.70;;;;;;5023731;28;20279;-75
2023/04/25 10:48:53;;;;;;;6.70;1.02;;;9.60;87.50;;;;;;5035645;28;20037;-75
2023/04/25 10:51:32;;;;;;;7.10;0.70;;;9.70;83.00;;;;;;5026045;28;20700;-74
2023/04/25 10:54:02;;;;;;;8.05;1.25;;;9.70;89.10;;;;;;5020058;28;20285;-75
2023/04/25 10:56:31;;;;;;;2.97;0.70;;;9.40;92.10;;;;;;5033104;28;20502;-75
2023/04/25 10:59:08;;;;;;;4.40;0.65;;;8.80;97.10;;;;;;5026327;28;20045;-75
2023/04/25 11:01:41;;;;;;;6.32;0.50;;;8.40;99.90;;;;;;5028121;28;20186;-75
2023/04/25 11:04:23;;;;;;;3.75;0.88;;;7.90;99.90;;;;;;5039760;28;20041;-76
2023/04/25 11:07:01;;;;;;;6.90;1.17;;;7.70;99.90;;;;;;5022455;28;20532;-75
2023/04/25 11:09:27;;;;;;;9.07;1.15;;;7.80;99.90;;;;;;5023512;28;20122;-75
2023/04/25 11:11:58;;;;;;;4.05;0.70;;;8.30;99.90;;;;;;5024956;28;20033;-75
2023/04/25 11:14:24;;;;;;;2.58;0.40;;;8.60;99.60;;;;;;5025586;28;20041;-75
2023/04/25 11:16:57;;;;;;;5.07;0.45;;;8.90;93.00;;;;;;5029496;28;20025;-75
2023/04/25 11:19:24;;;;;;;2.88;0.73;;;9.10;86.60;;;;;;5055678;28;20032;-76
2023/04/25 11:21:50;;;;;;;5.43;1.05;;;9.10;81.10;;;;;;5040910;28;20615;-75
2023/04/25 11:24:19;;;;;;;3.93;0.60;;;9.10;85.90;;;;;;5047756;28;20037;-76
2023/04/25 11:26:48;;;;;;;6.10;1.05;;;9.00;87.80;;;;;;5025560;28;20284;-75
2023/04/25 11:29:13;;;;;;;7.10;1.33;;;9.20;89.10;;;;;;5020610;28;20042;-74
2023/04/25 11:31:45;;;;;;;9.43;1.20;;;9.30;88.40;;;;;;5024569;28;20374;-75
2023/04/25 11:34:11;;;;;;;8.75;1.50;;;9.30;84.50;;;;;;5025009;28;20447;-75
2023/04/25 11:36:38;;;;;;;11.17;1.30;;;9.30;87.10;;;;;;5033394;28;20056;-76
2023/04/25 11:39:05;;;;;;;9.98;1.77;;;9.60;90.10;;;;;;5026572;28;20047;-76
2023/04/25 11:41:31;;;;;;;10.57;1.35;;;9.90;87.20;;;;;;5033269;28;20103;-75
2023/04/25 11:43:57;;;;;;;6.30;1.17;;;9.90;84.60;;;;;;5029118;28;20049;-75
2023/04/25 11:46:23;;;;;;;7.07;1.33;;;10.00;85.20;;;;;;5029367;28;20116;-74
2023/04/25 11:48:50;;;;;;;9.60;1.20;;;9.90;84.30;;;;;;5032024;28;20044;-75
2023/04/25 11:51:16;;;;;;;4.70;0.68;;;9.90;80.60;;;;;;5049103;28;20041;-75
2023/04/25 11:53:44;;;;;;;6.97;0.90;;;9.60;80.40;;;;;;5042240;28;20036;-75
2023/04/25 11:56:11;;;;;;;10.85;1.17;;;9.50;82.80;;;;;;5045375;28;20041;-75
2023/04/25 11:58:55;;;;;;;4.93;0.85;;;9.50;84.90;;;;;;5040474;28;20130;-74
2023/04/25 12:01:31;;;;;;;8.30;1.10;;;9.50;81.60;;;;;;5062552;28;20079;-76
2023/04/25 12:04:14;;;;;;;9.00;1.10;;;9.50;82.10;;;;;;5046572;28;20052;-75
2023/04/25 12:06:42;;;;;;;7.45;0.82;;;9.70;78.30;;;;;;5029795;28;20098;-75
2023/04/25 12:09:10;;;;;;;4.15;0.70;;;9.90;71.90;;;;;;5023978;28;20037;-76
2023/04/25 12:11:53;;;;;;;7.13;1.00;;;10.20;71.60;;;;;;5043639;28;20095;-75
2023/04/25 12:14:26;;;;;;;7.22;0.80;;;10.40;62.30;;;;;;5038311;28;20033;-77
2023/04/25 12:16:51;;;;;;;7.68;1.10;;;10.60;67.30;;;;;;5048106;28;20448;-75
2023/04/25 12:19:18;;;;;;;7.77;1.50;;;10.80;67.30;;;;;;5030513;28;20044;-75
2023/04/25 12:21:44;;;;;;;4.15;0.90;;;10.70;67.80;;;;;;5030129;28;20041;-75
2023/04/25 12:24:12;;;;;;;4.93;0.63;;;10.70;66.60;;;;;;5042115;28;20033;-75
2023/04/25 12:26:51;;;;;;;8.50;0.98;;;10.70;61.80;;;;;;5024300;28;20045;-75
2023/04/25 12:29:24;;;;;;;6.03;0.98;;;10.70;63.50;;;;;;5033514;28;20041;-75
2023/04/25 12:31:51;;;;;;;5.20;0.73;;;10.70;62.40;;;;;;5020458;28;20119;-75
2023/04/25 12:34:18;;;;;;;8.32;1.10;;;10.70;63.90;;;;;;5009508;28;20029;-75
2023/04/25 12:36:44;;;;;;;5.97;0.88;;;10.50;61.90;;;;;;5037664;28;20044;-75
2023/04/25 12:39:19;;;;;;;7.13;1.10;;;10.20;63.60;;;;;;5028953;28;20049;-74
2023/04/25 12:41:45;;;;;;;7.53;1.48;;;10.10;66.60;;;;;;5026095;28;20040;-74
2023/04/25 12:44:11;;;;;;;3.80;0.80;;;10.00;68.70;;;;;;5041287;28;20643;-74
2023/04/25 12:46:37;;;;;;;6.03;0.80;;;10.00;63.40;;;;;;5030283;28;20121;-75
2023/04/25 12:49:04;;;;;;;6.82;0.80;;;9.90;61.40;;;;;;5043275;28;20152;-74
2023/04/25 12:51:32;;;;;;;3.60;0.82;;;9.80;64.40;;;;;;5042506;28;20700;-75
2023/04/25 12:53:59;;;;;;;10.07;1.13;;;9.90;65.10;;;;;;5031033;28;20114;-75